sensor_id;sensor_type;location;lat;lon;timestamp;temperature;humidity
26821;DHT22;37186;51.394;5.454;2023-08-24T00:00:42;22.50;68.80
26821;DHT22;37186;51.394;5.454;2023-08-24T00:03:44;22.50;68.90
26821;DHT22;37186;51.394;5.454;2023-08-24T00:06:46;22.50;68.90
26821;DHT22;37186;51.394;5.454;2023-08-24T00:09:46;22.50;68.90
26821;DHT22;37186;51.394;5.454;2023-08-24T00:12:47;22.40;69.10
26821;DHT22;37186;51.394;5.454;2023-08-24T00:15:48;22.40;68.90
26821;DHT22;37186;51.394;5.454;2023-08-24T00:18:48;22.40;69.00
26821;DHT22;37186;51.394;5.454;2023-08-24T00:21:49;22.40;69.00
26821;DHT22;37186;51.394;5.454;2023-08-24T00:24:50;22.30;69.00
26821;DHT22;37186;51.394;5.454;2023-08-24T00:27:51;22.30;69.10
26821;DHT22;37186;51.394;5.454;2023-08-24T00:30:52;22.30;69.00
26821;DHT22;37186;51.394;5.454;2023-08-24T00:33:52;22.20;69.00
26821;DHT22;37186;51.394;5.454;2023-08-24T00:36:53;22.30;69.10
26821;DHT22;37186;51.394;5.454;2023-08-24T00:39:54;22.20;69.00
26821;DHT22;37186;51.394;5.454;2023-08-24T00:42:55;22.20;69.40
26821;DHT22;37186;51.394;5.454;2023-08-24T00:45:59;22.20;69.60
26821;DHT22;37186;51.394;5.454;2023-08-24T00:49:00;22.10;69.10
26821;DHT22;37186;51.394;5.454;2023-08-24T00:52:01;22.10;69.10
26821;DHT22;37186;51.394;5.454;2023-08-24T00:55:02;22.10;69.10
26821;DHT22;37186;51.394;5.454;2023-08-24T00:58:03;22.10;69.20
26821;DHT22;37186;51.394;5.454;2023-08-24T01:01:03;22.00;69.20
26821;DHT22;37186;51.394;5.454;2023-08-24T01:04:04;22.00;69.20
26821;DHT22;37186;51.394;5.454;2023-08-24T01:07:07;22.00;69.30
26821;DHT22;37186;51.394;5.454;2023-08-24T01:10:10;22.00;70.20
26821;DHT22;37186;51.394;5.454;2023-08-24T01:13:19;22.00;69.30
26821;DHT22;37186;51.394;5.454;2023-08-24T01:16:26;21.90;69.40
26821;DHT22;37186;51.394;5.454;2023-08-24T01:19:38;21.90;69.50
26821;DHT22;37186;51.394;5.454;2023-08-24T01:22:53;21.90;69.40
26821;DHT22;37186;51.394;5.454;2023-08-24T01:26:14;21.90;69.40
26821;DHT22;37186;51.394;5.454;2023-08-24T01:29:16;21.90;69.40
26821;DHT22;37186;51.394;5.454;2023-08-24T01:32:17;21.80;69.30
26821;DHT22;37186;51.394;5.454;2023-08-24T01:35:18;21.80;69.70
26821;DHT22;37186;51.394;5.454;2023-08-24T01:38:18;21.80;69.80
26821;DHT22;37186;51.394;5.454;2023-08-24T01:41:29;21.80;69.50
26821;DHT22;37186;51.394;5.454;2023-08-24T01:44:35;21.70;69.50
26821;DHT22;37186;51.394;5.454;2023-08-24T01:47:36;21.70;69.50
26821;DHT22;37186;51.394;5.454;2023-08-24T01:50:38;21.70;69.50
26821;DHT22;37186;51.394;5.454;2023-08-24T01:53:39;21.70;69.60
26821;DHT22;37186;51.394;5.454;2023-08-24T01:56:40;21.70;69.60
26821;DHT22;37186;51.394;5.454;2023-08-24T01:59:41;21.70;69.70
26821;DHT22;37186;51.394;5.454;2023-08-24T02:02:44;21.70;70.50
26821;DHT22;37186;51.394;5.454;2023-08-24T02:05:45;21.60;69.60
26821;DHT22;37186;51.394;5.454;2023-08-24T02:08:45;21.60;69.60
26821;DHT22;37186;51.394;5.454;2023-08-24T02:11:46;21.60;69.60
26821;DHT22;37186;51.394;5.454;2023-08-24T02:14:46;21.60;69.70
26821;DHT22;37186;51.394;5.454;2023-08-24T02:17:47;21.60;69.70
26821;DHT22;37186;51.394;5.454;2023-08-24T02:20:47;21.60;69.70
26821;DHT22;37186;51.394;5.454;2023-08-24T02:23:48;21.60;69.80
26821;DHT22;37186;51.394;5.454;2023-08-24T02:26:48;21.60;70.10
26821;DHT22;37186;51.394;5.454;2023-08-24T02:29:49;21.60;69.80
26821;DHT22;37186;51.394;5.454;2023-08-24T02:32:50;21.50;69.80
26821;DHT22;37186;51.394;5.454;2023-08-24T02:35:51;21.50;69.80
26821;DHT22;37186;51.394;5.454;2023-08-24T02:38:51;21.50;69.70
26821;DHT22;37186;51.394;5.454;2023-08-24T02:41:52;21.50;69.90
26821;DHT22;37186;51.394;5.454;2023-08-24T02:44:53;21.50;69.80
26821;DHT22;37186;51.394;5.454;2023-08-24T02:47:53;21.50;69.90
26821;DHT22;37186;51.394;5.454;2023-08-24T02:50:54;21.50;69.80
26821;DHT22;37186;51.394;5.454;2023-08-24T02:53:54;21.50;69.80
26821;DHT22;37186;51.394;5.454;2023-08-24T02:56:55;21.50;70.00
26821;DHT22;37186;51.394;5.454;2023-08-24T02:59:55;21.50;70.20
26821;DHT22;37186;51.394;5.454;2023-08-24T03:02:56;21.50;70.50
26821;DHT22;37186;51.394;5.454;2023-08-24T03:06:02;21.50;70.50
26821;DHT22;37186;51.394;5.454;2023-08-24T03:09:02;21.50;70.10
26821;DHT22;37186;51.394;5.454;2023-08-24T03:12:06;21.50;70.10
26821;DHT22;37186;51.394;5.454;2023-08-24T03:15:07;21.50;70.00
26821;DHT22;37186;51.394;5.454;2023-08-24T03:18:07;21.50;70.10
26821;DHT22;37186;51.394;5.454;2023-08-24T03:21:08;21.50;70.10
26821;DHT22;37186;51.394;5.454;2023-08-24T03:24:08;21.50;70.70
26821;DHT22;37186;51.394;5.454;2023-08-24T03:27:09;21.50;70.10
26821;DHT22;37186;51.394;5.454;2023-08-24T03:30:10;21.50;70.20
26821;DHT22;37186;51.394;5.454;2023-08-24T03:33:11;21.50;71.00
26821;DHT22;37186;51.394;5.454;2023-08-24T03:36:11;21.40;70.10
26821;DHT22;37186;51.394;5.454;2023-08-24T03:39:13;21.50;70.40
26821;DHT22;37186;51.394;5.454;2023-08-24T03:42:15;21.40;70.10
26821;DHT22;37186;51.394;5.454;2023-08-24T03:45:16;21.40;70.20
26821;DHT22;37186;51.394;5.454;2023-08-24T03:48:17;21.40;70.20
26821;DHT22;37186;51.394;5.454;2023-08-24T03:51:18;21.40;70.30
26821;DHT22;37186;51.394;5.454;2023-08-24T03:54:19;21.40;70.50
26821;DHT22;37186;51.394;5.454;2023-08-24T03:57:20;21.40;70.50
26821;DHT22;37186;51.394;5.454;2023-08-24T04:00:21;21.40;70.30
26821;DHT22;37186;51.394;5.454;2023-08-24T04:03:21;21.40;70.50
26821;DHT22;37186;51.394;5.454;2023-08-24T04:06:22;21.40;70.70
26821;DHT22;37186;51.394;5.454;2023-08-24T04:09:22;21.40;70.70
26821;DHT22;37186;51.394;5.454;2023-08-24T04:12:23;21.40;70.80
26821;DHT22;37186;51.394;5.454;2023-08-24T04:15:23;21.40;70.60
26821;DHT22;37186;51.394;5.454;2023-08-24T04:18:24;21.40;70.80
26821;DHT22;37186;51.394;5.454;2023-08-24T04:21:24;21.40;70.90
26821;DHT22;37186;51.394;5.454;2023-08-24T04:24:25;21.40;70.60
26821;DHT22;37186;51.394;5.454;2023-08-24T04:27:26;21.40;70.70
26821;DHT22;37186;51.394;5.454;2023-08-24T04:30:27;21.40;70.60
26821;DHT22;37186;51.394;5.454;2023-08-24T04:33:27;21.40;70.60
26821;DHT22;37186;51.394;5.454;2023-08-24T04:36:28;21.40;70.90
26821;DHT22;37186;51.394;5.454;2023-08-24T04:39:28;21.40;70.70
26821;DHT22;37186;51.394;5.454;2023-08-24T04:42:30;21.40;70.80
26821;DHT22;37186;51.394;5.454;2023-08-24T04:45:31;21.30;70.80
26821;DHT22;37186;51.394;5.454;2023-08-24T04:48:31;21.30;70.80
26821;DHT22;37186;51.394;5.454;2023-08-24T04:51:34;21.30;71.30
26821;DHT22;37186;51.394;5.454;2023-08-24T04:54:35;21.30;70.80
26821;DHT22;37186;51.394;5.454;2023-08-24T04:57:35;21.30;70.70
26821;DHT22;37186;51.394;5.454;2023-08-24T05:00:37;21.30;70.80
26821;DHT22;37186;51.394;5.454;2023-08-24T05:03:37;21.30;70.80
26821;DHT22;37186;51.394;5.454;2023-08-24T05:06:38;21.30;70.90
26821;DHT22;37186;51.394;5.454;2023-08-24T05:09:39;21.30;71.00
26821;DHT22;37186;51.394;5.454;2023-08-24T05:12:40;21.30;70.90
26821;DHT22;37186;51.394;5.454;2023-08-24T05:15:40;21.30;71.00
26821;DHT22;37186;51.394;5.454;2023-08-24T05:18:41;21.30;71.10
26821;DHT22;37186;51.394;5.454;2023-08-24T05:21:41;21.30;70.90
26821;DHT22;37186;51.394;5.454;2023-08-24T05:24:42;21.20;71.00
26821;DHT22;37186;51.394;5.454;2023-08-24T05:27:43;21.20;71.00
26821;DHT22;37186;51.394;5.454;2023-08-24T05:30:44;21.30;71.00
26821;DHT22;37186;51.394;5.454;2023-08-24T05:33:44;21.20;71.20
26821;DHT22;37186;51.394;5.454;2023-08-24T05:36:45;21.20;71.60
26821;DHT22;37186;51.394;5.454;2023-08-24T05:39:45;21.20;71.30
26821;DHT22;37186;51.394;5.454;2023-08-24T05:42:46;21.20;71.20
26821;DHT22;37186;51.394;5.454;2023-08-24T05:45:48;21.20;71.50
26821;DHT22;37186;51.394;5.454;2023-08-24T05:48:48;21.20;71.50
26821;DHT22;37186;51.394;5.454;2023-08-24T05:51:52;21.20;71.30
26821;DHT22;37186;51.394;5.454;2023-08-24T05:54:53;21.20;71.40
26821;DHT22;37186;51.394;5.454;2023-08-24T05:57:53;21.20;71.30
26821;DHT22;37186;51.394;5.454;2023-08-24T06:00:58;21.20;71.40
26821;DHT22;37186;51.394;5.454;2023-08-24T06:03:59;21.10;71.30
26821;DHT22;37186;51.394;5.454;2023-08-24T06:06:59;21.10;71.50
26821;DHT22;37186;51.394;5.454;2023-08-24T06:10:00;21.20;71.40
26821;DHT22;37186;51.394;5.454;2023-08-24T06:13:01;21.10;71.40
26821;DHT22;37186;51.394;5.454;2023-08-24T06:16:02;21.10;71.40
26821;DHT22;37186;51.394;5.454;2023-08-24T06:19:02;21.10;71.50
26821;DHT22;37186;51.394;5.454;2023-08-24T06:22:04;21.10;71.30
26821;DHT22;37186;51.394;5.454;2023-08-24T06:25:05;21.10;71.50
26821;DHT22;37186;51.394;5.454;2023-08-24T06:28:05;21.10;71.50
26821;DHT22;37186;51.394;5.454;2023-08-24T06:31:06;21.10;71.50
26821;DHT22;37186;51.394;5.454;2023-08-24T06:34:09;21.10;71.50
26821;DHT22;37186;51.394;5.454;2023-08-24T06:37:10;21.10;71.50
26821;DHT22;37186;51.394;5.454;2023-08-24T06:40:11;21.20;71.60
26821;DHT22;37186;51.394;5.454;2023-08-24T06:43:11;21.20;71.60
26821;DHT22;37186;51.394;5.454;2023-08-24T06:46:12;21.20;71.60
26821;DHT22;37186;51.394;5.454;2023-08-24T06:49:13;21.20;71.60
26821;DHT22;37186;51.394;5.454;2023-08-24T06:52:13;21.20;71.60
26821;DHT22;37186;51.394;5.454;2023-08-24T06:55:14;21.20;71.60
26821;DHT22;37186;51.394;5.454;2023-08-24T06:58:14;21.20;71.70
26821;DHT22;37186;51.394;5.454;2023-08-24T07:01:15;21.20;71.70
26821;DHT22;37186;51.394;5.454;2023-08-24T07:04:16;21.30;71.70
26821;DHT22;37186;51.394;5.454;2023-08-24T07:07:17;21.30;71.90
26821;DHT22;37186;51.394;5.454;2023-08-24T07:10:18;21.30;71.80
26821;DHT22;37186;51.394;5.454;2023-08-24T07:13:19;21.30;71.70
26821;DHT22;37186;51.394;5.454;2023-08-24T07:16:19;21.30;71.80
26821;DHT22;37186;51.394;5.454;2023-08-24T07:19:20;21.40;71.80
26821;DHT22;37186;51.394;5.454;2023-08-24T07:22:21;21.40;71.90
26821;DHT22;37186;51.394;5.454;2023-08-24T07:25:21;21.40;72.00
26821;DHT22;37186;51.394;5.454;2023-08-24T07:28:22;21.40;72.10
26821;DHT22;37186;51.394;5.454;2023-08-24T07:31:22;21.50;72.00
26821;DHT22;37186;51.394;5.454;2023-08-24T07:34:23;21.50;72.10
26821;DHT22;37186;51.394;5.454;2023-08-24T07:37:24;21.50;72.10
26821;DHT22;37186;51.394;5.454;2023-08-24T07:40:24;21.60;72.10
26821;DHT22;37186;51.394;5.454;2023-08-24T07:43:26;21.60;72.20
26821;DHT22;37186;51.394;5.454;2023-08-24T07:46:27;21.60;72.20
26821;DHT22;37186;51.394;5.454;2023-08-24T07:49:27;21.70;72.50
26821;DHT22;37186;51.394;5.454;2023-08-24T07:52:28;21.70;72.50
26821;DHT22;37186;51.394;5.454;2023-08-24T07:55:29;21.80;72.50
26821;DHT22;37186;51.394;5.454;2023-08-24T07:58:29;21.80;72.60
26821;DHT22;37186;51.394;5.454;2023-08-24T08:01:33;21.90;72.70
26821;DHT22;37186;51.394;5.454;2023-08-24T08:04:33;21.90;72.70
26821;DHT22;37186;51.394;5.454;2023-08-24T08:07:34;22.00;72.80
26821;DHT22;37186;51.394;5.454;2023-08-24T08:10:35;22.00;72.80
26821;DHT22;37186;51.394;5.454;2023-08-24T08:13:35;22.10;72.90
26821;DHT22;37186;51.394;5.454;2023-08-24T08:16:36;22.10;72.90
26821;DHT22;37186;51.394;5.454;2023-08-24T08:19:36;22.20;72.90
26821;DHT22;37186;51.394;5.454;2023-08-24T08:22:38;22.30;73.00
26821;DHT22;37186;51.394;5.454;2023-08-24T08:25:39;22.30;73.20
26821;DHT22;37186;51.394;5.454;2023-08-24T08:28:42;22.40;73.20
26821;DHT22;37186;51.394;5.454;2023-08-24T08:31:43;22.40;73.20
26821;DHT22;37186;51.394;5.454;2023-08-24T08:34:44;22.50;73.20
26821;DHT22;37186;51.394;5.454;2023-08-24T08:37:45;22.60;73.20
26821;DHT22;37186;51.394;5.454;2023-08-24T08:40:47;22.60;73.30
26821;DHT22;37186;51.394;5.454;2023-08-24T08:43:49;22.70;73.30
26821;DHT22;37186;51.394;5.454;2023-08-24T08:46:50;22.70;73.30
26821;DHT22;37186;51.394;5.454;2023-08-24T08:49:52;22.70;73.30
26821;DHT22;37186;51.394;5.454;2023-08-24T08:52:55;22.80;73.30
26821;DHT22;37186;51.394;5.454;2023-08-24T08:55:56;22.90;73.50
26821;DHT22;37186;51.394;5.454;2023-08-24T08:58:59;22.90;73.40
26821;DHT22;37186;51.394;5.454;2023-08-24T09:02:04;23.00;73.50
26821;DHT22;37186;51.394;5.454;2023-08-24T09:05:04;23.00;73.60
26821;DHT22;37186;51.394;5.454;2023-08-24T09:08:05;23.10;73.60
26821;DHT22;37186;51.394;5.454;2023-08-24T09:11:06;23.10;73.60
26821;DHT22;37186;51.394;5.454;2023-08-24T09:14:08;23.20;73.60
26821;DHT22;37186;51.394;5.454;2023-08-24T09:17:09;23.20;73.60
26821;DHT22;37186;51.394;5.454;2023-08-24T09:20:10;23.30;73.70
26821;DHT22;37186;51.394;5.454;2023-08-24T09:23:17;23.30;73.70
26821;DHT22;37186;51.394;5.454;2023-08-24T09:26:31;23.40;73.70
26821;DHT22;37186;51.394;5.454;2023-08-24T09:29:36;23.50;73.80
26821;DHT22;37186;51.394;5.454;2023-08-24T09:32:37;23.50;73.80
26821;DHT22;37186;51.394;5.454;2023-08-24T09:35:37;23.60;73.70
26821;DHT22;37186;51.394;5.454;2023-08-24T09:38:46;23.60;73.70
26821;DHT22;37186;51.394;5.454;2023-08-24T09:41:48;23.70;73.80
26821;DHT22;37186;51.394;5.454;2023-08-24T09:44:49;23.80;73.70
26821;DHT22;37186;51.394;5.454;2023-08-24T09:47:50;23.80;73.80
26821;DHT22;37186;51.394;5.454;2023-08-24T09:50:52;23.80;73.80
26821;DHT22;37186;51.394;5.454;2023-08-24T09:53:57;23.90;73.90
26821;DHT22;37186;51.394;5.454;2023-08-24T09:56:58;24.00;74.00
26821;DHT22;37186;51.394;5.454;2023-08-24T10:00:00;24.00;73.80
26821;DHT22;37186;51.394;5.454;2023-08-24T10:03:01;24.00;73.80
26821;DHT22;37186;51.394;5.454;2023-08-24T10:06:04;24.10;73.80
26821;DHT22;37186;51.394;5.454;2023-08-24T10:09:07;24.10;73.80
26821;DHT22;37186;51.394;5.454;2023-08-24T10:12:09;24.20;73.80
26821;DHT22;37186;51.394;5.454;2023-08-24T10:15:10;24.20;73.70
26821;DHT22;37186;51.394;5.454;2023-08-24T10:18:15;24.30;73.70
26821;DHT22;37186;51.394;5.454;2023-08-24T10:21:17;24.30;73.70
26821;DHT22;37186;51.394;5.454;2023-08-24T10:24:18;24.30;73.60
26821;DHT22;37186;51.394;5.454;2023-08-24T10:27:22;24.40;73.70
26821;DHT22;37186;51.394;5.454;2023-08-24T10:30:24;24.40;73.60
26821;DHT22;37186;51.394;5.454;2023-08-24T10:33:26;24.40;73.50
26821;DHT22;37186;51.394;5.454;2023-08-24T10:36:27;24.40;73.40
26821;DHT22;37186;51.394;5.454;2023-08-24T10:39:29;24.50;73.40
26821;DHT22;37186;51.394;5.454;2023-08-24T10:42:43;24.50;73.30
26821;DHT22;37186;51.394;5.454;2023-08-24T10:48:58;24.50;73.30
26821;DHT22;37186;51.394;5.454;2023-08-24T10:55:26;24.50;73.20
26821;DHT22;37186;51.394;5.454;2023-08-24T10:58:27;24.50;73.20
26821;DHT22;37186;51.394;5.454;2023-08-24T11:01:34;24.50;73.20
26821;DHT22;37186;51.394;5.454;2023-08-24T11:04:35;24.50;73.20
26821;DHT22;37186;51.394;5.454;2023-08-24T11:08:03;24.50;73.20
26821;DHT22;37186;51.394;5.454;2023-08-24T11:11:18;24.50;73.20
26821;DHT22;37186;51.394;5.454;2023-08-24T11:14:20;24.50;73.30
26821;DHT22;37186;51.394;5.454;2023-08-24T11:17:22;24.50;73.30
26821;DHT22;37186;51.394;5.454;2023-08-24T11:20:23;24.60;73.40
26821;DHT22;37186;51.394;5.454;2023-08-24T11:23:24;24.60;73.40
26821;DHT22;37186;51.394;5.454;2023-08-24T11:26:25;24.60;73.40
26821;DHT22;37186;51.394;5.454;2023-08-24T11:29:26;24.60;73.50
26821;DHT22;37186;51.394;5.454;2023-08-24T11:32:27;24.60;73.50
26821;DHT22;37186;51.394;5.454;2023-08-24T11:35:28;24.60;73.50
26821;DHT22;37186;51.394;5.454;2023-08-24T11:38:39;24.60;73.50
26821;DHT22;37186;51.394;5.454;2023-08-24T11:41:40;24.60;73.50
26821;DHT22;37186;51.394;5.454;2023-08-24T11:44:47;24.60;73.50
26821;DHT22;37186;51.394;5.454;2023-08-24T11:47:49;24.60;73.50
26821;DHT22;37186;51.394;5.454;2023-08-24T11:50:50;24.60;73.50
26821;DHT22;37186;51.394;5.454;2023-08-24T11:53:51;24.70;73.50
26821;DHT22;37186;51.394;5.454;2023-08-24T11:56:52;24.60;73.50
26821;DHT22;37186;51.394;5.454;2023-08-24T11:59:53;24.70;73.60
26821;DHT22;37186;51.394;5.454;2023-08-24T12:02:54;24.70;73.70
26821;DHT22;37186;51.394;5.454;2023-08-24T12:05:59;24.70;73.80
26821;DHT22;37186;51.394;5.454;2023-08-24T12:09:00;24.70;74.10
26821;DHT22;37186;51.394;5.454;2023-08-24T12:12:04;24.70;74.30
26821;DHT22;37186;51.394;5.454;2023-08-24T12:15:05;24.80;74.30
26821;DHT22;37186;51.394;5.454;2023-08-24T12:18:11;24.80;74.40
26821;DHT22;37186;51.394;5.454;2023-08-24T12:21:11;24.90;74.60
26821;DHT22;37186;51.394;5.454;2023-08-24T12:24:14;24.90;74.50
26821;DHT22;37186;51.394;5.454;2023-08-24T12:27:22;24.90;74.50
26821;DHT22;37186;51.394;5.454;2023-08-24T12:30:23;24.90;74.60
26821;DHT22;37186;51.394;5.454;2023-08-24T12:33:29;25.00;74.60
26821;DHT22;37186;51.394;5.454;2023-08-24T12:36:32;25.00;74.70
26821;DHT22;37186;51.394;5.454;2023-08-24T12:39:36;25.10;74.70
26821;DHT22;37186;51.394;5.454;2023-08-24T12:42:37;25.10;74.70
26821;DHT22;37186;51.394;5.454;2023-08-24T12:45:39;25.10;74.80
26821;DHT22;37186;51.394;5.454;2023-08-24T12:48:39;25.20;74.90
26821;DHT22;37186;51.394;5.454;2023-08-24T12:51:40;25.20;74.80
26821;DHT22;37186;51.394;5.454;2023-08-24T12:54:41;25.20;74.70
26821;DHT22;37186;51.394;5.454;2023-08-24T12:57:42;25.20;74.70
26821;DHT22;37186;51.394;5.454;2023-08-24T13:00:43;25.30;74.70
26821;DHT22;37186;51.394;5.454;2023-08-24T13:03:43;25.30;74.80
26821;DHT22;37186;51.394;5.454;2023-08-24T13:06:44;25.30;74.70
26821;DHT22;37186;51.394;5.454;2023-08-24T13:09:44;25.30;74.70
26821;DHT22;37186;51.394;5.454;2023-08-24T13:12:45;25.30;74.60
26821;DHT22;37186;51.394;5.454;2023-08-24T13:15:47;25.30;74.50
26821;DHT22;37186;51.394;5.454;2023-08-24T13:18:48;25.30;74.50
26821;DHT22;37186;51.394;5.454;2023-08-24T13:21:49;25.30;74.50
26821;DHT22;37186;51.394;5.454;2023-08-24T13:24:49;25.30;74.40
26821;DHT22;37186;51.394;5.454;2023-08-24T13:27:50;25.30;74.40
26821;DHT22;37186;51.394;5.454;2023-08-24T13:30:50;25.30;74.40
26821;DHT22;37186;51.394;5.454;2023-08-24T13:33:51;25.30;74.30
26821;DHT22;37186;51.394;5.454;2023-08-24T13:36:52;25.30;74.40
26821;DHT22;37186;51.394;5.454;2023-08-24T13:39:52;25.30;75.00
26821;DHT22;37186;51.394;5.454;2023-08-24T13:42:53;25.30;74.20
26821;DHT22;37186;51.394;5.454;2023-08-24T13:45:53;25.30;74.20
26821;DHT22;37186;51.394;5.454;2023-08-24T13:48:54;25.30;74.20
26821;DHT22;37186;51.394;5.454;2023-08-24T13:51:54;25.30;74.20
26821;DHT22;37186;51.394;5.454;2023-08-24T13:54:55;25.30;74.20
26821;DHT22;37186;51.394;5.454;2023-08-24T13:57:55;25.20;74.10
26821;DHT22;37186;51.394;5.454;2023-08-24T14:00:59;25.20;74.00
26821;DHT22;37186;51.394;5.454;2023-08-24T14:04:03;25.20;74.10
26821;DHT22;37186;51.394;5.454;2023-08-24T14:07:04;25.20;74.20
26821;DHT22;37186;51.394;5.454;2023-08-24T14:10:05;25.20;74.10
26821;DHT22;37186;51.394;5.454;2023-08-24T14:13:07;25.10;74.20
26821;DHT22;37186;51.394;5.454;2023-08-24T14:16:07;25.10;74.00
26821;DHT22;37186;51.394;5.454;2023-08-24T14:19:08;25.10;74.00
26821;DHT22;37186;51.394;5.454;2023-08-24T14:22:08;25.10;74.30
26821;DHT22;37186;51.394;5.454;2023-08-24T14:25:09;25.00;74.30
26821;DHT22;37186;51.394;5.454;2023-08-24T14:28:09;25.00;74.10
26821;DHT22;37186;51.394;5.454;2023-08-24T14:31:10;25.00;74.10
26821;DHT22;37186;51.394;5.454;2023-08-24T14:34:11;24.90;74.00
26821;DHT22;37186;51.394;5.454;2023-08-24T14:37:11;24.90;74.00
26821;DHT22;37186;51.394;5.454;2023-08-24T14:40:12;24.90;74.10
26821;DHT22;37186;51.394;5.454;2023-08-24T14:43:12;24.90;74.50
26821;DHT22;37186;51.394;5.454;2023-08-24T14:46:13;24.90;74.20
26821;DHT22;37186;51.394;5.454;2023-08-24T14:49:14;24.90;74.20
26821;DHT22;37186;51.394;5.454;2023-08-24T14:52:18;24.90;74.60
26821;DHT22;37186;51.394;5.454;2023-08-24T14:55:19;24.80;74.30
26821;DHT22;37186;51.394;5.454;2023-08-24T14:58:21;24.80;74.50
26821;DHT22;37186;51.394;5.454;2023-08-24T15:01:22;24.80;74.50
26821;DHT22;37186;51.394;5.454;2023-08-24T15:04:22;24.80;74.50
26821;DHT22;37186;51.394;5.454;2023-08-24T15:07:23;24.80;74.50
26821;DHT22;37186;51.394;5.454;2023-08-24T15:10:23;24.80;74.90
26821;DHT22;37186;51.394;5.454;2023-08-24T15:13:25;24.80;74.70
26821;DHT22;37186;51.394;5.454;2023-08-24T15:16:26;24.80;74.60
26821;DHT22;37186;51.394;5.454;2023-08-24T15:19:27;24.70;74.50
26821;DHT22;37186;51.394;5.454;2023-08-24T15:22:27;24.70;74.50
26821;DHT22;37186;51.394;5.454;2023-08-24T15:25:29;24.70;74.50
26821;DHT22;37186;51.394;5.454;2023-08-24T15:29:06;24.70;74.70
26821;DHT22;37186;51.394;5.454;2023-08-24T15:31:58;24.80;74.80
26821;DHT22;37186;51.394;5.454;2023-08-24T15:34:58;24.70;74.60
26821;DHT22;37186;51.394;5.454;2023-08-24T15:37:59;24.80;75.00
26821;DHT22;37186;51.394;5.454;2023-08-24T15:41:00;24.70;74.60
26821;DHT22;37186;51.394;5.454;2023-08-24T15:44:00;24.70;74.70
26821;DHT22;37186;51.394;5.454;2023-08-24T15:47:01;24.80;74.70
26821;DHT22;37186;51.394;5.454;2023-08-24T15:50:01;24.70;74.70
26821;DHT22;37186;51.394;5.454;2023-08-24T15:53:02;24.70;74.70
26821;DHT22;37186;51.394;5.454;2023-08-24T15:56:03;24.80;74.80
26821;DHT22;37186;51.394;5.454;2023-08-24T15:59:04;24.80;74.90
26821;DHT22;37186;51.394;5.454;2023-08-24T16:02:05;24.80;74.90
26821;DHT22;37186;51.394;5.454;2023-08-24T16:05:06;24.80;74.90
26821;DHT22;37186;51.394;5.454;2023-08-24T16:08:07;24.80;74.90
26821;DHT22;37186;51.394;5.454;2023-08-24T16:11:11;24.80;74.80
26821;DHT22;37186;51.394;5.454;2023-08-24T16:14:12;24.80;74.80
26821;DHT22;37186;51.394;5.454;2023-08-24T16:17:12;24.90;74.80
26821;DHT22;37186;51.394;5.454;2023-08-24T16:20:13;24.90;74.80
26821;DHT22;37186;51.394;5.454;2023-08-24T16:23:13;24.90;74.80
26821;DHT22;37186;51.394;5.454;2023-08-24T16:26:14;24.90;75.00
26821;DHT22;37186;51.394;5.454;2023-08-24T16:29:15;24.90;75.10
26821;DHT22;37186;51.394;5.454;2023-08-24T16:32:15;24.90;75.00
26821;DHT22;37186;51.394;5.454;2023-08-24T16:35:16;24.90;75.00
26821;DHT22;37186;51.394;5.454;2023-08-24T16:38:16;25.00;74.90
26821;DHT22;37186;51.394;5.454;2023-08-24T16:41:17;25.00;75.00
26821;DHT22;37186;51.394;5.454;2023-08-24T16:44:17;25.00;74.80
26821;DHT22;37186;51.394;5.454;2023-08-24T16:47:18;25.00;74.70
26821;DHT22;37186;51.394;5.454;2023-08-24T16:50:19;25.00;74.70
26821;DHT22;37186;51.394;5.454;2023-08-24T16:53:20;25.00;74.70
26821;DHT22;37186;51.394;5.454;2023-08-24T16:56:20;25.00;74.70
26821;DHT22;37186;51.394;5.454;2023-08-24T16:59:21;25.00;74.50
26821;DHT22;37186;51.394;5.454;2023-08-24T17:02:21;25.00;74.60
26821;DHT22;37186;51.394;5.454;2023-08-24T17:05:22;25.00;74.60
26821;DHT22;37186;51.394;5.454;2023-08-24T17:08:22;25.00;74.60
26821;DHT22;37186;51.394;5.454;2023-08-24T17:11:23;25.00;74.50
26821;DHT22;37186;51.394;5.454;2023-08-24T17:14:24;25.00;74.50
26821;DHT22;37186;51.394;5.454;2023-08-24T17:17:25;25.00;74.50
26821;DHT22;37186;51.394;5.454;2023-08-24T17:20:25;25.00;74.70
26821;DHT22;37186;51.394;5.454;2023-08-24T17:23:26;25.00;74.60
26821;DHT22;37186;51.394;5.454;2023-08-24T17:26:27;25.00;74.70
26821;DHT22;37186;51.394;5.454;2023-08-24T17:29:27;25.00;75.00
26821;DHT22;37186;51.394;5.454;2023-08-24T17:32:28;25.00;74.60
26821;DHT22;37186;51.394;5.454;2023-08-24T17:35:29;25.00;74.60
26821;DHT22;37186;51.394;5.454;2023-08-24T17:38:30;25.00;75.40
26821;DHT22;37186;51.394;5.454;2023-08-24T17:41:30;25.00;74.70
26821;DHT22;37186;51.394;5.454;2023-08-24T17:44:31;25.00;74.70
26821;DHT22;37186;51.394;5.454;2023-08-24T17:47:32;25.00;74.70
26821;DHT22;37186;51.394;5.454;2023-08-24T17:50:33;25.00;74.80
26821;DHT22;37186;51.394;5.454;2023-08-24T17:53:34;25.10;74.80
26821;DHT22;37186;51.394;5.454;2023-08-24T17:56:34;25.10;74.70
26821;DHT22;37186;51.394;5.454;2023-08-24T17:59:35;25.10;74.70
26821;DHT22;37186;51.394;5.454;2023-08-24T18:02:36;25.00;75.40
26821;DHT22;37186;51.394;5.454;2023-08-24T18:05:36;25.00;74.50
26821;DHT22;37186;51.394;5.454;2023-08-24T18:08:37;25.10;74.60
26821;DHT22;37186;51.394;5.454;2023-08-24T18:11:38;25.00;74.50
26821;DHT22;37186;51.394;5.454;2023-08-24T18:14:38;25.00;74.50
26821;DHT22;37186;51.394;5.454;2023-08-24T18:17:39;25.00;74.40
26821;DHT22;37186;51.394;5.454;2023-08-24T18:20:40;25.00;74.40
26821;DHT22;37186;51.394;5.454;2023-08-24T18:23:41;25.00;74.40
26821;DHT22;37186;51.394;5.454;2023-08-24T18:26:41;24.90;74.30
26821;DHT22;37186;51.394;5.454;2023-08-24T18:29:42;25.00;74.30
26821;DHT22;37186;51.394;5.454;2023-08-24T18:32:43;24.90;74.30
26821;DHT22;37186;51.394;5.454;2023-08-24T18:35:44;24.90;74.30
26821;DHT22;37186;51.394;5.454;2023-08-24T18:38:44;24.90;74.20
26821;DHT22;37186;51.394;5.454;2023-08-24T18:41:45;24.80;74.20
26821;DHT22;37186;51.394;5.454;2023-08-24T18:44:47;24.80;74.20
26821;DHT22;37186;51.394;5.454;2023-08-24T18:47:48;24.70;74.20
26821;DHT22;37186;51.394;5.454;2023-08-24T18:50:48;24.70;74.20
26821;DHT22;37186;51.394;5.454;2023-08-24T18:53:49;24.70;74.30
26821;DHT22;37186;51.394;5.454;2023-08-24T18:56:49;24.60;74.30
26821;DHT22;37186;51.394;5.454;2023-08-24T18:59:50;24.60;75.00
26821;DHT22;37186;51.394;5.454;2023-08-24T19:02:52;24.60;74.30
26821;DHT22;37186;51.394;5.454;2023-08-24T19:05:54;24.50;74.30
26821;DHT22;37186;51.394;5.454;2023-08-24T19:08:55;24.40;74.30
26821;DHT22;37186;51.394;5.454;2023-08-24T19:11:56;24.40;74.30